createdAt,value
2023-12-18T00:00:23.263Z,10.10
2023-12-18T00:02:50.905Z,8.60
2023-12-18T00:05:18.682Z,9.50
2023-12-18T00:07:46.409Z,9.60
2023-12-18T00:10:14.369Z,10.60
2023-12-18T00:12:42.046Z,9.90
2023-12-18T00:15:09.849Z,11.80
2023-12-18T00:17:37.614Z,9.70
2023-12-18T00:20:05.781Z,10.90
2023-12-18T00:22:33.513Z,11.30
2023-12-18T00:25:01.172Z,9.50
2023-12-18T00:27:28.810Z,11.40
2023-12-18T00:29:56.492Z,10.30
2023-12-18T00:32:24.051Z,12.00
2023-12-18T00:34:51.802Z,12.10
2023-12-18T00:37:19.468Z,13.50
2023-12-18T00:39:47.037Z,10.00
2023-12-18T00:42:14.629Z,9.80
2023-12-18T00:44:42.260Z,11.70
2023-12-18T00:47:09.914Z,9.60
2023-12-18T00:49:37.904Z,7.60
2023-12-18T00:52:05.640Z,8.30
2023-12-18T00:54:33.236Z,9.70
2023-12-18T00:57:00.902Z,11.60
2023-12-18T00:59:28.531Z,7.70
2023-12-18T01:01:56.085Z,11.30
2023-12-18T01:04:23.684Z,10.20
2023-12-18T01:06:51.325Z,7.70
2023-12-18T01:09:19.013Z,10.40
2023-12-18T01:11:46.526Z,11.00
2023-12-18T01:14:14.094Z,10.00
2023-12-18T01:16:41.452Z,9.30
2023-12-18T01:19:09.299Z,9.80
2023-12-18T01:21:37.027Z,9.90
2023-12-18T01:24:04.777Z,8.70
2023-12-18T01:26:32.502Z,9.30
2023-12-18T01:29:00.177Z,9.50
2023-12-18T01:31:27.852Z,9.40
2023-12-18T01:33:55.699Z,7.40
2023-12-18T01:36:23.646Z,9.00
2023-12-18T01:38:51.332Z,10.00
2023-12-18T01:41:18.985Z,8.90
2023-12-18T01:43:46.529Z,7.80
2023-12-18T01:46:14.095Z,8.30
2023-12-18T01:48:41.762Z,8.40
2023-12-18T01:51:09.973Z,9.20
2023-12-18T01:53:37.596Z,8.20
2023-12-18T01:56:05.263Z,7.70
2023-12-18T01:58:32.830Z,9.30
2023-12-18T02:01:00.570Z,8.60
2023-12-18T02:03:28.320Z,8.70
2023-12-18T02:05:56.110Z,8.30
2023-12-18T02:08:23.667Z,8.90
2023-12-18T02:10:51.118Z,8.10
2023-12-18T02:13:18.672Z,8.80
2023-12-18T02:15:46.584Z,8.00
2023-12-18T02:18:14.460Z,5.50
2023-12-18T02:20:42.278Z,8.50
2023-12-18T02:23:09.831Z,8.90
2023-12-18T02:25:37.409Z,9.20
2023-12-18T02:28:05.058Z,9.50
2023-12-18T02:30:32.731Z,7.90
2023-12-18T02:33:00.463Z,10.90
2023-12-18T02:35:28.489Z,10.30
2023-12-18T02:37:56.116Z,10.00
2023-12-18T02:40:23.672Z,9.20
2023-12-18T02:42:51.365Z,9.60
2023-12-18T02:45:19.089Z,9.70
2023-12-18T02:47:46.974Z,10.20
2023-12-18T02:50:14.732Z,11.50
2023-12-18T02:52:42.389Z,11.00
2023-12-18T02:55:09.944Z,10.80
2023-12-18T02:57:37.846Z,9.20
2023-12-18T03:00:05.631Z,10.50
2023-12-18T03:02:33.345Z,11.10
2023-12-18T03:05:00.948Z,10.00
2023-12-18T03:07:28.666Z,11.10
2023-12-18T03:09:56.237Z,9.70
2023-12-18T03:12:24.056Z,11.10
2023-12-18T03:14:51.755Z,10.00
2023-12-18T03:17:19.735Z,12.20
2023-12-18T03:19:47.371Z,8.90
2023-12-18T03:22:15.151Z,13.20
2023-12-18T03:24:42.786Z,12.80
2023-12-18T03:27:10.580Z,12.20
2023-12-18T03:29:38.187Z,11.50
2023-12-18T03:32:05.792Z,12.80
2023-12-18T03:34:33.541Z,12.00
2023-12-18T03:37:01.754Z,12.30
2023-12-18T03:39:29.314Z,12.90
2023-12-18T03:41:56.845Z,9.80
2023-12-18T03:44:24.402Z,11.70
2023-12-18T03:46:51.964Z,10.00
2023-12-18T03:49:19.805Z,9.60
2023-12-18T03:51:47.529Z,10.70
2023-12-18T03:54:15.278Z,10.20
2023-12-18T03:56:42.813Z,10.10
2023-12-18T03:59:10.684Z,13.50
2023-12-18T04:01:38.294Z,11.90
2023-12-18T04:04:06.069Z,9.00
2023-12-18T04:06:33.799Z,10.60
2023-12-18T04:09:01.452Z,11.50
2023-12-18T04:11:29.022Z,11.00
2023-12-18T04:13:56.655Z,10.40
2023-12-18T04:16:24.321Z,11.60
2023-12-18T04:18:52.025Z,10.80
2023-12-18T04:21:19.875Z,12.00
2023-12-18T04:23:47.601Z,11.40
2023-12-18T04:26:15.180Z,13.60
2023-12-18T04:28:42.833Z,10.20
2023-12-18T04:31:10.411Z,10.00
2023-12-18T04:33:38.326Z,10.50
2023-12-18T04:36:06.074Z,9.30
2023-12-18T04:38:33.784Z,10.80
2023-12-18T04:41:01.335Z,9.30
2023-12-18T04:43:28.905Z,9.20
2023-12-18T04:45:56.458Z,8.10
2023-12-18T04:48:24.180Z,8.90
2023-12-18T04:50:51.778Z,9.70
2023-12-18T04:53:19.338Z,8.90
2023-12-18T04:55:46.996Z,8.20
2023-12-18T04:58:14.582Z,8.80
2023-12-18T05:00:42.315Z,8.80
2023-12-18T05:03:10.216Z,8.70
2023-12-18T05:05:38.400Z,8.60
2023-12-18T05:08:05.922Z,8.80
2023-12-18T05:10:33.490Z,8.80
2023-12-18T05:13:01.062Z,8.90
2023-12-18T05:15:28.753Z,9.00
2023-12-18T05:17:56.384Z,9.00
2023-12-18T05:20:24.038Z,9.00
2023-12-18T05:22:51.704Z,9.80
2023-12-18T05:25:19.573Z,9.00
2023-12-18T05:27:47.170Z,8.80
2023-12-18T05:30:15.073Z,7.70
2023-12-18T05:32:43.188Z,7.90
2023-12-18T05:35:11.025Z,7.70
2023-12-18T05:37:38.685Z,5.80
2023-12-18T05:40:06.338Z,9.70
2023-12-18T05:42:33.990Z,12.40
2023-12-18T05:45:01.992Z,11.00
2023-12-18T05:47:29.675Z,9.80
2023-12-18T05:49:57.351Z,8.70
2023-12-18T05:52:25.068Z,9.40
2023-12-18T05:54:52.682Z,9.20
2023-12-18T05:57:20.579Z,9.30
2023-12-18T05:59:48.252Z,9.70
2023-12-18T06:02:15.916Z,7.80
2023-12-18T06:04:43.609Z,7.80
2023-12-18T06:07:11.792Z,8.30
2023-12-18T06:09:39.652Z,6.20
2023-12-18T06:12:07.419Z,8.50
2023-12-18T06:14:35.054Z,6.50
2023-12-18T06:17:02.708Z,7.60
2023-12-18T06:19:30.374Z,8.60
2023-12-18T06:21:58.119Z,6.00
2023-12-18T06:24:25.724Z,9.00
2023-12-18T06:26:53.752Z,9.20
2023-12-18T06:29:21.108Z,8.20
2023-12-18T06:31:48.824Z,6.50
2023-12-18T06:34:16.722Z,7.90
2023-12-18T06:36:44.454Z,7.30
2023-12-18T06:39:12.269Z,6.80
2023-12-18T06:41:39.931Z,8.00
2023-12-18T06:44:07.595Z,8.70
2023-12-18T06:46:35.160Z,8.00
2023-12-18T06:49:03.184Z,7.90
2023-12-18T06:51:30.892Z,9.70
2023-12-18T06:53:58.566Z,9.20
2023-12-18T06:56:26.105Z,8.10
2023-12-18T06:58:53.870Z,9.60
2023-12-18T07:01:21.534Z,8.10
2023-12-18T07:03:49.276Z,10.40
2023-12-18T07:06:16.974Z,10.40
2023-12-18T07:08:44.744Z,8.40
2023-12-18T07:11:12.281Z,10.70
2023-12-18T07:13:39.951Z,11.50
2023-12-18T07:16:07.529Z,9.90
2023-12-18T07:18:35.379Z,14.10
2023-12-18T07:21:03.232Z,13.00
2023-12-18T07:23:30.796Z,11.80
2023-12-18T07:25:58.346Z,10.70
2023-12-18T07:28:25.911Z,10.40
2023-12-18T07:30:53.324Z,11.60
2023-12-18T07:33:21.275Z,14.20
2023-12-18T07:35:48.898Z,14.00
2023-12-18T07:38:16.558Z,13.80
2023-12-18T07:40:44.117Z,12.80
2023-12-18T07:43:11.775Z,9.90
2023-12-18T07:45:39.376Z,11.60
2023-12-18T07:48:12.635Z,10.20
2023-12-18T07:50:40.424Z,10.40
2023-12-18T07:53:08.052Z,10.10
2023-12-18T07:55:36.023Z,10.80
2023-12-18T07:58:03.691Z,10.20
2023-12-18T08:00:31.270Z,10.70
2023-12-18T08:02:59.187Z,11.30
2023-12-18T08:05:26.956Z,11.90
2023-12-18T08:07:54.845Z,12.10
2023-12-18T08:10:22.404Z,10.10
2023-12-18T08:12:50.170Z,13.20
2023-12-18T08:15:17.855Z,12.60
2023-12-18T08:17:45.741Z,17.20
2023-12-18T08:20:13.457Z,14.20
2023-12-18T08:22:41.470Z,12.60
2023-12-18T08:25:09.192Z,12.30
2023-12-18T08:27:36.876Z,14.00
2023-12-18T08:30:04.597Z,17.60
2023-12-18T08:32:32.435Z,18.30
2023-12-18T08:35:00.353Z,18.20
2023-12-18T08:37:28.011Z,19.20
2023-12-18T08:39:55.703Z,14.70
2023-12-18T08:42:23.558Z,16.00
2023-12-18T08:44:51.302Z,16.40
2023-12-18T08:47:18.976Z,11.80
2023-12-18T08:49:46.528Z,11.20
2023-12-18T08:52:14.186Z,10.50
2023-12-18T08:54:41.876Z,9.90
2023-12-18T08:57:09.934Z,12.70
2023-12-18T08:59:37.478Z,11.00
2023-12-18T09:02:05.308Z,10.70
2023-12-18T09:04:33.148Z,11.70
2023-12-18T09:07:00.799Z,13.00
2023-12-18T09:09:28.437Z,44.20
2023-12-18T09:11:55.982Z,37.60
2023-12-18T09:14:23.563Z,15.10
2023-12-18T09:16:51.520Z,11.70
2023-12-18T09:19:19.252Z,18.60
2023-12-18T09:21:47.110Z,15.50
2023-12-18T09:24:14.837Z,11.40
2023-12-18T09:26:42.469Z,10.90
2023-12-18T09:29:10.214Z,13.60
2023-12-18T09:31:37.976Z,14.20
2023-12-18T09:34:06.147Z,15.20
2023-12-18T09:36:33.895Z,25.30
2023-12-18T09:39:02.002Z,13.30
2023-12-18T09:41:29.562Z,13.60
2023-12-18T09:43:57.230Z,12.20
2023-12-18T09:46:24.892Z,12.50
2023-12-18T09:48:52.640Z,11.80
2023-12-18T09:51:20.343Z,12.70
2023-12-18T09:53:47.978Z,10.10
2023-12-18T09:56:15.642Z,11.90
2023-12-18T09:58:43.197Z,10.30
2023-12-18T10:01:10.965Z,11.10
2023-12-18T10:03:38.695Z,11.50
2023-12-18T10:06:06.500Z,11.00
2023-12-18T10:08:34.049Z,9.60
2023-12-18T10:11:01.711Z,11.00
2023-12-18T10:13:29.269Z,11.40
2023-12-18T10:15:56.989Z,11.40
2023-12-18T10:18:24.896Z,9.90
2023-12-18T10:20:53.867Z,11.50
2023-12-18T10:23:21.448Z,10.50
2023-12-18T10:25:49.124Z,11.70
2023-12-18T10:28:16.770Z,11.60
2023-12-18T10:30:44.469Z,12.70
2023-12-18T10:33:12.617Z,11.70
2023-12-18T10:35:40.477Z,10.10
2023-12-18T10:38:08.043Z,12.50
2023-12-18T10:40:35.719Z,11.20
2023-12-18T10:43:03.764Z,12.10
2023-12-18T10:45:31.524Z,10.70
2023-12-18T10:47:59.429Z,10.80
2023-12-18T10:50:27.277Z,12.40
2023-12-18T10:52:54.826Z,10.40
2023-12-18T10:55:22.547Z,10.50
2023-12-18T10:57:50.258Z,10.10
2023-12-18T11:00:18.179Z,9.60
2023-12-18T11:02:45.893Z,10.50
2023-12-18T11:05:13.824Z,9.50
2023-12-18T11:07:41.949Z,9.60
2023-12-18T11:10:11.434Z,9.90
2023-12-18T11:12:40.344Z,9.70
2023-12-18T11:15:08.050Z,8.70
2023-12-18T11:17:35.901Z,9.00
2023-12-18T11:20:03.692Z,10.00
2023-12-18T11:22:31.478Z,9.40
2023-12-18T11:24:59.334Z,8.90
2023-12-18T11:27:26.926Z,10.50
2023-12-18T11:29:54.357Z,9.10
2023-12-18T11:32:21.909Z,9.90
2023-12-18T11:34:49.734Z,9.40
2023-12-18T11:37:17.551Z,10.40
2023-12-18T11:39:45.129Z,9.60
2023-12-18T11:42:13.302Z,8.90
2023-12-18T11:44:40.966Z,9.20
2023-12-18T11:47:08.594Z,8.60
2023-12-18T11:49:36.217Z,8.80
2023-12-18T11:52:03.924Z,8.90
2023-12-18T11:54:32.861Z,8.50
2023-12-18T11:57:00.574Z,9.70
2023-12-18T11:59:28.231Z,8.70
2023-12-18T12:01:55.789Z,9.40
2023-12-18T12:04:23.810Z,8.90
2023-12-18T12:06:51.480Z,8.90
2023-12-18T12:09:19.231Z,7.30
2023-12-18T12:11:46.846Z,27.60
2023-12-18T12:14:14.517Z,30.20
2023-12-18T12:16:41.898Z,25.90
2023-12-18T12:19:09.711Z,11.60
2023-12-18T12:21:45.223Z,8.50
2023-12-18T12:24:16.976Z,8.10
2023-12-18T12:26:44.818Z,8.40
2023-12-18T12:29:12.649Z,9.70
2023-12-18T12:31:40.535Z,8.20
2023-12-18T12:34:08.357Z,8.30
2023-12-18T12:36:36.113Z,8.60
2023-12-18T12:39:03.959Z,9.40
2023-12-18T12:41:33.432Z,9.80
2023-12-18T12:44:04.937Z,10.40
2023-12-18T12:46:36.008Z,9.30
2023-12-18T12:49:04.561Z,8.60
2023-12-18T12:51:34.279Z,5.20
2023-12-18T12:54:01.999Z,3.40
2023-12-18T12:56:29.651Z,3.00
2023-12-18T12:58:57.436Z,2.50
2023-12-18T13:01:25.191Z,2.90
2023-12-18T13:03:53.200Z,2.80
2023-12-18T13:06:21.554Z,2.60
2023-12-18T13:08:49.387Z,2.60
2023-12-18T13:11:17.055Z,2.40
2023-12-18T13:13:44.721Z,2.30
2023-12-18T13:16:12.261Z,3.40
2023-12-18T13:18:40.068Z,8.20
2023-12-18T13:21:07.803Z,10.50
2023-12-18T13:23:35.667Z,10.80
2023-12-18T13:26:03.656Z,13.90
2023-12-18T13:28:31.298Z,11.60
2023-12-18T13:30:58.744Z,13.80
2023-12-18T13:33:26.677Z,12.30
2023-12-18T13:35:55.524Z,15.70
2023-12-18T13:38:23.887Z,16.30
2023-12-18T13:40:51.446Z,17.30
2023-12-18T13:43:19.106Z,19.40
2023-12-18T13:45:46.860Z,16.00
2023-12-18T13:48:14.593Z,19.80
2023-12-18T13:50:42.700Z,18.40
2023-12-18T13:53:10.166Z,13.20
2023-12-18T13:55:37.724Z,18.10
2023-12-18T13:58:05.312Z,16.70
2023-12-18T14:00:33.010Z,16.00
2023-12-18T14:03:00.632Z,18.00
2023-12-18T14:05:28.192Z,16.70
2023-12-18T14:07:55.838Z,18.50
2023-12-18T14:10:23.517Z,17.80
2023-12-18T14:12:51.651Z,15.70
2023-12-18T14:15:19.388Z,26.00
2023-12-18T14:17:47.086Z,21.40
2023-12-18T14:20:14.779Z,22.60
2023-12-18T14:22:42.609Z,23.90
2023-12-18T14:25:10.539Z,22.30
2023-12-18T14:27:38.292Z,24.30
2023-12-18T14:30:06.145Z,27.90
2023-12-18T14:32:33.992Z,23.80
2023-12-18T14:35:01.873Z,23.20
2023-12-18T14:37:29.603Z,20.10
2023-12-18T14:39:57.431Z,18.40
2023-12-18T14:42:25.260Z,20.20
2023-12-18T14:44:52.813Z,24.20
2023-12-18T14:47:20.419Z,23.90
2023-12-18T14:49:48.125Z,22.70
2023-12-18T14:52:16.297Z,26.70
2023-12-18T14:54:43.870Z,28.00
2023-12-18T14:57:11.556Z,28.20
2023-12-18T14:59:39.170Z,33.10
2023-12-18T15:02:06.900Z,36.20
2023-12-18T15:04:34.710Z,33.70
2023-12-18T15:07:02.500Z,24.00
2023-12-18T15:09:30.293Z,17.50
2023-12-18T15:11:58.086Z,27.20
2023-12-18T15:14:25.973Z,26.80
2023-12-18T15:16:53.616Z,22.30
2023-12-18T15:19:21.340Z,24.70
2023-12-18T15:21:49.178Z,37.00
2023-12-18T15:24:16.844Z,28.00
2023-12-18T15:26:44.371Z,30.20
2023-12-18T15:29:11.950Z,30.30
2023-12-18T15:31:40.174Z,35.40
2023-12-18T15:34:08.163Z,35.30
2023-12-18T15:36:37.783Z,34.40
2023-12-18T15:39:05.441Z,34.10
2023-12-18T15:41:33.013Z,31.20
2023-12-18T15:44:00.560Z,31.00
2023-12-18T15:46:28.249Z,29.10
2023-12-18T15:48:55.962Z,31.80
2023-12-18T15:51:23.870Z,35.30
2023-12-18T15:53:51.829Z,33.20
2023-12-18T15:56:19.400Z,46.50
2023-12-18T15:58:46.967Z,45.70
2023-12-18T16:01:15.029Z,36.30
2023-12-18T16:03:43.012Z,40.90
2023-12-18T16:06:10.861Z,41.70
2023-12-18T16:08:38.405Z,32.20
2023-12-18T16:11:05.962Z,37.50
2023-12-18T16:13:33.625Z,78.90
2023-12-18T16:16:01.830Z,53.40
2023-12-18T16:18:29.782Z,56.70
2023-12-18T16:20:57.222Z,53.30
2023-12-18T16:23:24.998Z,53.60
2023-12-18T16:25:52.595Z,55.30
2023-12-18T16:28:20.312Z,41.30
2023-12-18T16:30:56.039Z,34.00
2023-12-18T16:33:25.431Z,35.30
2023-12-18T16:35:53.411Z,29.80
2023-12-18T16:38:21.506Z,25.90
2023-12-18T16:40:49.162Z,22.70
2023-12-18T16:43:16.831Z,20.10
2023-12-18T16:45:44.381Z,17.80
2023-12-18T16:48:12.008Z,17.40
2023-12-18T16:50:39.818Z,19.70
2023-12-18T16:53:07.503Z,17.30
2023-12-18T16:55:35.032Z,15.80
2023-12-18T16:58:02.706Z,15.90
2023-12-18T17:00:30.372Z,18.20
2023-12-18T17:02:58.019Z,16.20
2023-12-18T17:05:25.689Z,15.00
2023-12-18T17:07:53.575Z,15.20
2023-12-18T17:10:21.112Z,18.30
2023-12-18T17:12:48.786Z,18.10
2023-12-18T17:15:16.486Z,22.40
2023-12-18T17:17:44.206Z,22.20
2023-12-18T17:20:11.804Z,23.30
2023-12-18T17:22:39.743Z,22.20
2023-12-18T17:25:07.389Z,18.90
2023-12-18T17:27:35.194Z,19.40
2023-12-18T17:30:02.814Z,20.00
2023-12-18T17:32:30.550Z,18.40
2023-12-18T17:34:58.483Z,18.70
2023-12-18T17:37:26.295Z,20.20
2023-12-18T17:39:54.078Z,19.60
2023-12-18T17:42:22.169Z,18.00
2023-12-18T17:44:49.693Z,16.90
2023-12-18T17:47:17.370Z,17.00
2023-12-18T17:49:45.022Z,15.00
2023-12-18T17:52:12.694Z,13.20
2023-12-18T17:54:40.284Z,13.20
2023-12-18T17:57:07.903Z,13.10
2023-12-18T17:59:35.466Z,14.20
2023-12-18T18:02:03.126Z,14.60
2023-12-18T18:04:31.243Z,17.10
2023-12-18T18:06:59.001Z,23.00
2023-12-18T18:09:26.680Z,22.00
2023-12-18T18:11:54.276Z,27.60
2023-12-18T18:14:21.947Z,20.30
2023-12-18T18:16:49.505Z,20.20
2023-12-18T18:19:17.277Z,24.10
2023-12-18T18:21:44.960Z,23.80
2023-12-18T18:24:12.931Z,24.50
2023-12-18T18:26:40.555Z,28.60
2023-12-18T18:29:08.115Z,34.20
2023-12-18T18:31:35.849Z,35.80
2023-12-18T18:34:03.756Z,38.30
2023-12-18T18:36:31.536Z,34.30
2023-12-18T18:38:59.183Z,41.20
2023-12-18T18:41:27.034Z,35.20
2023-12-18T18:43:55.117Z,34.20
2023-12-18T18:46:22.674Z,37.50
2023-12-18T18:48:50.401Z,35.80
2023-12-18T18:51:18.231Z,28.90
2023-12-18T18:53:45.965Z,30.70
2023-12-18T18:56:13.526Z,35.30
2023-12-18T18:58:41.190Z,31.90
2023-12-18T19:01:08.880Z,31.80
2023-12-18T19:03:36.814Z,47.20
2023-12-18T19:06:04.783Z,38.70
2023-12-18T19:08:32.554Z,39.70
2023-12-18T19:10:59.998Z,41.00
2023-12-18T19:13:27.559Z,43.50
2023-12-18T19:15:55.480Z,50.20
2023-12-18T19:18:23.426Z,48.50
2023-12-18T19:20:51.062Z,50.10
2023-12-18T19:23:18.713Z,47.40
2023-12-18T19:25:46.278Z,39.40
2023-12-18T19:28:13.878Z,40.40
2023-12-18T19:30:41.572Z,44.70
2023-12-18T19:33:09.391Z,58.00
2023-12-18T19:35:37.118Z,49.00
2023-12-18T19:38:04.693Z,42.50
2023-12-18T19:40:32.243Z,40.10
2023-12-18T19:42:59.863Z,43.50
2023-12-18T19:45:27.596Z,45.90
2023-12-18T19:47:55.589Z,56.80
2023-12-18T19:50:23.982Z,57.40
2023-12-18T19:52:51.685Z,55.60
2023-12-18T19:55:19.238Z,53.40
2023-12-18T19:57:46.905Z,54.20
2023-12-18T20:00:14.567Z,42.20
2023-12-18T20:02:42.609Z,51.80
2023-12-18T20:05:10.501Z,51.20
2023-12-18T20:07:38.203Z,50.40
2023-12-18T20:10:05.952Z,50.90
2023-12-18T20:12:33.650Z,48.90
2023-12-18T20:15:01.540Z,49.30
2023-12-18T20:17:29.267Z,49.30
2023-12-18T20:19:56.932Z,48.30
2023-12-18T20:22:24.598Z,60.80
2023-12-18T20:24:52.456Z,53.40
2023-12-18T20:27:20.237Z,55.10
2023-12-18T20:29:47.932Z,49.10
2023-12-18T20:32:15.495Z,41.80
2023-12-18T20:34:43.251Z,38.60
2023-12-18T20:37:11.004Z,34.60
2023-12-18T20:39:38.829Z,24.00
2023-12-18T20:42:06.467Z,24.40
2023-12-18T20:44:34.009Z,27.50
2023-12-18T20:47:01.660Z,25.80
2023-12-18T20:49:29.409Z,21.60
2023-12-18T20:51:57.622Z,22.20
2023-12-18T20:54:25.390Z,22.20
2023-12-18T20:56:53.031Z,23.70
2023-12-18T20:59:20.605Z,22.70
2023-12-18T21:01:48.441Z,21.40
2023-12-18T21:04:16.273Z,20.20
2023-12-18T21:06:43.998Z,24.30
2023-12-18T21:09:11.643Z,18.20
2023-12-18T21:11:39.410Z,23.10
2023-12-18T21:14:07.431Z,18.00
2023-12-18T21:16:35.256Z,23.80
2023-12-18T21:19:03.009Z,24.90
2023-12-18T21:21:30.930Z,24.40
2023-12-18T21:23:58.643Z,30.40
2023-12-18T21:26:26.296Z,33.40
2023-12-18T21:28:53.869Z,38.20
2023-12-18T21:31:21.833Z,29.60
2023-12-18T21:33:49.854Z,28.70
2023-12-18T21:36:17.677Z,39.00
2023-12-18T21:38:45.217Z,38.60
2023-12-18T21:41:12.781Z,33.00
2023-12-18T21:43:40.364Z,30.40
2023-12-18T21:46:08.041Z,39.50
2023-12-18T21:48:35.820Z,31.80
2023-12-18T21:51:03.445Z,25.90
2023-12-18T21:53:31.106Z,32.70
2023-12-18T21:55:58.651Z,35.90
2023-12-18T21:58:26.658Z,26.10
2023-12-18T22:00:54.350Z,24.50
2023-12-18T22:03:22.233Z,26.40
2023-12-18T22:05:50.147Z,30.90
2023-12-18T22:08:17.883Z,25.10
2023-12-18T22:10:45.544Z,25.50
2023-12-18T22:13:13.125Z,27.80
2023-12-18T22:15:40.695Z,26.90
2023-12-18T22:18:08.487Z,26.30
2023-12-18T22:20:36.490Z,25.60
2023-12-18T22:23:04.069Z,42.30
2023-12-18T22:25:31.714Z,38.50
2023-12-18T22:27:59.390Z,46.20
2023-12-18T22:30:27.121Z,43.40
2023-12-18T22:32:54.965Z,30.00
2023-12-18T22:35:22.565Z,26.20
2023-12-18T22:37:50.134Z,25.20
2023-12-18T22:40:17.989Z,25.30
2023-12-18T22:42:45.839Z,26.30
2023-12-18T22:45:13.787Z,27.80
2023-12-18T22:47:41.414Z,25.00
2023-12-18T22:50:09.128Z,26.00
2023-12-18T22:52:36.815Z,24.00
2023-12-18T22:55:04.520Z,22.00
2023-12-18T22:57:32.155Z,23.00
2023-12-18T22:59:59.795Z,30.70
2023-12-18T23:02:27.355Z,35.20
2023-12-18T23:04:55.127Z,36.10
2023-12-18T23:07:22.783Z,33.80
2023-12-18T23:09:50.457Z,37.70
2023-12-18T23:12:18.110Z,27.20
2023-12-18T23:14:45.666Z,26.10
2023-12-18T23:17:13.225Z,25.90
2023-12-18T23:19:40.840Z,25.70
2023-12-18T23:22:08.692Z,29.00
2023-12-18T23:27:17.610Z,34.10
2023-12-18T23:29:45.148Z,37.10
2023-12-18T23:32:12.806Z,45.40
2023-12-18T23:34:40.552Z,55.50
2023-12-18T23:37:08.743Z,42.50
2023-12-18T23:39:36.419Z,45.30
2023-12-18T23:42:04.064Z,40.30
2023-12-18T23:44:31.646Z,56.70
2023-12-18T23:46:59.294Z,48.10
2023-12-18T23:49:26.936Z,55.10
2023-12-18T23:51:54.836Z,55.40
2023-12-18T23:54:22.641Z,65.40
2023-12-18T23:56:50.352Z,62.30
2023-12-18T23:59:18.318Z,43.90
